createdAt,value
2022-10-16T00:00:33.895Z,0.00
2022-10-16T00:01:33.866Z,0.00
2022-10-16T00:02:34.025Z,0.00
2022-10-16T00:03:33.875Z,0.00
2022-10-16T00:04:33.868Z,0.00
2022-10-16T00:05:33.875Z,0.00
2022-10-16T00:06:33.873Z,0.00
2022-10-16T00:07:33.868Z,0.00
2022-10-16T00:08:33.874Z,0.00
2022-10-16T00:09:33.880Z,0.00
2022-10-16T00:10:33.868Z,0.00
2022-10-16T00:11:33.871Z,0.00
2022-10-16T00:12:33.875Z,0.00
2022-10-16T00:13:33.872Z,0.00
2022-10-16T00:14:33.869Z,0.00
2022-10-16T00:15:33.873Z,0.00
2022-10-16T00:16:33.892Z,0.00
2022-10-16T00:17:33.870Z,0.00
2022-10-16T00:18:33.868Z,0.00
2022-10-16T00:19:33.868Z,0.00
2022-10-16T00:20:33.871Z,0.00
2022-10-16T00:21:33.872Z,0.00
2022-10-16T00:22:33.870Z,0.00
2022-10-16T00:23:33.876Z,0.00
2022-10-16T00:24:33.869Z,0.00
2022-10-16T00:25:33.874Z,0.00
2022-10-16T00:26:33.871Z,0.00
2022-10-16T00:27:33.872Z,0.00
2022-10-16T00:28:33.917Z,0.00
2022-10-16T00:29:33.868Z,0.00
2022-10-16T00:30:33.870Z,0.00
2022-10-16T00:31:33.874Z,0.00
2022-10-16T00:32:33.890Z,0.00
2022-10-16T00:33:33.873Z,0.00
2022-10-16T00:34:33.870Z,0.00
2022-10-16T00:35:33.867Z,0.00
2022-10-16T00:36:33.871Z,0.00
2022-10-16T00:37:33.871Z,0.00
2022-10-16T00:38:33.874Z,0.00
2022-10-16T00:39:33.876Z,0.00
2022-10-16T00:40:33.875Z,0.00
2022-10-16T00:41:33.874Z,0.00
2022-10-16T00:42:33.869Z,0.00
2022-10-16T00:43:33.868Z,0.00
2022-10-16T00:44:33.875Z,0.00
2022-10-16T00:45:33.871Z,0.00
2022-10-16T00:46:33.874Z,0.00
2022-10-16T00:47:33.887Z,0.00
2022-10-16T00:48:33.890Z,0.00
2022-10-16T00:49:33.871Z,0.00
2022-10-16T00:50:33.871Z,0.00
2022-10-16T00:51:33.879Z,0.00
2022-10-16T00:52:33.877Z,0.00
2022-10-16T00:53:33.870Z,0.00
2022-10-16T00:54:33.873Z,0.00
2022-10-16T00:55:36.624Z,0.00
2022-10-16T00:56:33.883Z,0.00
2022-10-16T00:57:33.867Z,0.00
2022-10-16T00:58:33.872Z,0.00
2022-10-16T00:59:33.870Z,0.00
2022-10-16T01:00:33.871Z,0.00
2022-10-16T01:01:33.957Z,0.00
2022-10-16T01:02:33.873Z,0.00
2022-10-16T01:03:33.874Z,0.00
2022-10-16T01:04:33.894Z,0.00
2022-10-16T01:05:33.880Z,0.00
2022-10-16T01:06:33.869Z,0.00
2022-10-16T01:07:33.871Z,0.00
2022-10-16T01:08:33.872Z,0.00
2022-10-16T01:09:33.868Z,0.00
2022-10-16T01:10:33.876Z,0.00
2022-10-16T01:11:33.871Z,0.00
2022-10-16T01:12:37.743Z,0.00
2022-10-16T01:13:33.869Z,0.00
2022-10-16T01:14:33.877Z,0.00
2022-10-16T01:15:33.925Z,0.00
2022-10-16T01:16:33.874Z,0.00
2022-10-16T01:17:33.870Z,0.00
2022-10-16T01:18:33.874Z,0.00
2022-10-16T01:19:33.879Z,0.00
2022-10-16T01:20:33.900Z,0.00
2022-10-16T01:21:33.874Z,0.00
2022-10-16T01:22:33.876Z,0.00
2022-10-16T01:23:33.871Z,0.00
2022-10-16T01:24:33.991Z,0.00
2022-10-16T01:25:33.872Z,0.00
2022-10-16T01:26:33.882Z,0.00
2022-10-16T01:27:33.872Z,0.00
2022-10-16T01:28:33.951Z,0.00
2022-10-16T01:29:33.871Z,0.00
2022-10-16T01:30:33.872Z,0.00
2022-10-16T01:31:33.872Z,0.00
2022-10-16T01:32:33.872Z,0.00
2022-10-16T01:33:33.876Z,0.00
2022-10-16T01:34:33.872Z,0.00
2022-10-16T01:35:33.871Z,0.00
2022-10-16T01:36:33.900Z,0.00
2022-10-16T01:37:33.872Z,0.00
2022-10-16T01:38:33.869Z,0.00
2022-10-16T01:39:33.873Z,0.00
2022-10-16T01:40:33.879Z,0.00
2022-10-16T01:41:33.872Z,0.00
2022-10-16T01:42:33.872Z,0.00
2022-10-16T01:43:33.875Z,0.00
2022-10-16T01:44:33.872Z,0.00
2022-10-16T01:45:33.880Z,0.00
2022-10-16T01:46:33.869Z,0.00
2022-10-16T01:47:33.872Z,0.00
2022-10-16T01:48:33.876Z,0.00
2022-10-16T01:49:33.872Z,0.00
2022-10-16T01:50:33.871Z,0.00
2022-10-16T01:51:33.872Z,0.00
2022-10-16T01:52:33.896Z,0.00
2022-10-16T01:53:33.876Z,0.00
2022-10-16T01:54:33.873Z,0.00
2022-10-16T01:55:33.877Z,0.00
2022-10-16T01:56:33.873Z,0.00
2022-10-16T01:57:33.876Z,0.00
2022-10-16T01:58:33.869Z,0.00
2022-10-16T01:59:33.876Z,0.00
2022-10-16T02:00:33.880Z,0.00
2022-10-16T02:01:33.900Z,0.00
2022-10-16T02:02:33.874Z,0.00
2022-10-16T02:03:33.876Z,0.00
2022-10-16T02:04:33.876Z,0.00
2022-10-16T02:05:33.873Z,0.00
2022-10-16T02:06:33.873Z,0.00
2022-10-16T02:07:33.872Z,0.00
2022-10-16T02:08:33.893Z,0.00
2022-10-16T02:09:33.875Z,0.00
2022-10-16T02:10:33.878Z,0.00
2022-10-16T02:11:33.874Z,0.00
2022-10-16T02:12:33.881Z,0.00
2022-10-16T02:13:33.872Z,0.00
2022-10-16T02:14:33.873Z,0.00
2022-10-16T02:15:33.877Z,0.00
2022-10-16T02:16:33.879Z,0.00
2022-10-16T02:17:33.870Z,0.00
2022-10-16T02:18:33.873Z,0.00
2022-10-16T02:19:33.923Z,0.00
2022-10-16T02:20:33.876Z,0.00
2022-10-16T02:21:33.873Z,0.00
2022-10-16T02:22:33.875Z,0.00
2022-10-16T02:23:33.876Z,0.00
2022-10-16T02:24:33.905Z,0.00
2022-10-16T02:25:33.872Z,0.00
2022-10-16T02:26:33.872Z,0.00
2022-10-16T02:27:33.881Z,0.00
2022-10-16T02:28:33.983Z,0.00
2022-10-16T02:29:33.874Z,0.00
2022-10-16T02:30:33.875Z,0.00
2022-10-16T02:31:33.873Z,0.00
2022-10-16T02:32:33.877Z,0.00
2022-10-16T02:33:33.874Z,0.00
2022-10-16T02:34:33.883Z,0.00
2022-10-16T02:35:33.875Z,0.00
2022-10-16T02:36:33.876Z,0.00
2022-10-16T02:37:33.876Z,0.00
2022-10-16T02:38:33.882Z,0.00
2022-10-16T02:39:33.874Z,0.00
2022-10-16T02:40:33.897Z,0.00
2022-10-16T02:41:33.871Z,0.00
2022-10-16T02:42:33.876Z,0.00
2022-10-16T02:43:33.881Z,0.00
2022-10-16T02:44:33.874Z,0.00
2022-10-16T02:45:33.883Z,0.00
2022-10-16T02:46:33.873Z,0.00
2022-10-16T02:47:33.873Z,0.00
2022-10-16T02:48:33.872Z,0.00
2022-10-16T02:49:33.871Z,0.00
2022-10-16T02:50:33.874Z,0.00
2022-10-16T02:51:33.881Z,0.00
2022-10-16T02:52:33.872Z,0.00
2022-10-16T02:53:33.875Z,0.00
2022-10-16T02:54:33.874Z,0.00
2022-10-16T02:55:33.876Z,0.00
2022-10-16T02:56:33.896Z,0.00
2022-10-16T02:57:33.880Z,0.00
2022-10-16T02:58:33.873Z,0.00
2022-10-16T02:59:33.875Z,0.00
2022-10-16T03:00:33.874Z,0.00
2022-10-16T03:01:33.980Z,0.00
2022-10-16T03:02:33.873Z,0.00
2022-10-16T03:03:33.875Z,0.00
2022-10-16T03:04:33.874Z,0.00
2022-10-16T03:05:33.877Z,0.00
2022-10-16T03:06:33.880Z,0.00
2022-10-16T03:07:33.875Z,0.00
2022-10-16T03:08:33.872Z,0.00
2022-10-16T03:09:33.874Z,0.00
2022-10-16T03:10:33.877Z,0.00
2022-10-16T03:11:33.878Z,0.00
2022-10-16T03:12:33.914Z,0.00
2022-10-16T03:13:33.872Z,0.00
2022-10-16T03:14:33.877Z,0.00
2022-10-16T03:15:33.879Z,0.00
2022-10-16T03:16:33.879Z,0.00
2022-10-16T03:17:33.882Z,0.00
2022-10-16T03:18:33.878Z,0.00
2022-10-16T03:19:33.874Z,0.00
2022-10-16T03:20:33.876Z,0.00
2022-10-16T03:21:33.878Z,0.00
2022-10-16T03:22:33.875Z,0.00
2022-10-16T03:23:33.886Z,0.00
2022-10-16T03:24:33.873Z,0.00
2022-10-16T03:25:33.883Z,0.00
2022-10-16T03:26:33.875Z,0.00
2022-10-16T03:27:33.904Z,0.00
2022-10-16T03:28:34.038Z,0.00
2022-10-16T03:29:33.886Z,0.00
2022-10-16T03:30:33.876Z,0.00
2022-10-16T03:31:33.879Z,0.00
2022-10-16T03:33:33.878Z,0.00
2022-10-16T03:34:33.882Z,0.00
2022-10-16T03:35:33.882Z,0.00
2022-10-16T03:36:33.877Z,0.00
2022-10-16T03:37:33.876Z,0.00
2022-10-16T03:38:33.880Z,0.00
2022-10-16T03:39:33.879Z,0.00
2022-10-16T03:40:33.879Z,0.00
2022-10-16T03:41:33.885Z,0.00
2022-10-16T03:42:33.878Z,0.00
2022-10-16T03:43:33.887Z,0.00
2022-10-16T03:44:33.900Z,0.00
2022-10-16T03:45:33.877Z,0.00
2022-10-16T03:46:33.878Z,0.00
2022-10-16T03:47:33.880Z,0.00
2022-10-16T03:48:33.881Z,0.00
2022-10-16T03:49:33.882Z,0.00
2022-10-16T03:50:33.873Z,0.00
2022-10-16T03:51:33.888Z,0.00
2022-10-16T03:52:33.881Z,0.00
2022-10-16T03:53:33.874Z,0.00
2022-10-16T03:54:33.881Z,0.00
2022-10-16T03:55:33.885Z,0.00
2022-10-16T03:56:33.874Z,0.00
2022-10-16T03:57:33.878Z,0.00
2022-10-16T03:58:33.877Z,0.00
2022-10-16T03:59:33.877Z,0.00
2022-10-16T04:00:33.898Z,0.00
2022-10-16T04:01:33.874Z,0.00
2022-10-16T04:02:33.930Z,0.00
2022-10-16T04:03:33.883Z,0.00
2022-10-16T04:04:33.880Z,0.00
2022-10-16T04:05:33.877Z,0.00
2022-10-16T04:06:33.875Z,0.00
2022-10-16T04:07:33.878Z,0.00
2022-10-16T04:08:33.876Z,0.00
2022-10-16T04:09:33.883Z,0.00
2022-10-16T04:10:33.881Z,0.00
2022-10-16T04:11:33.878Z,0.00
2022-10-16T04:12:33.879Z,0.00
2022-10-16T04:13:33.876Z,0.00
2022-10-16T04:14:33.880Z,0.00
2022-10-16T04:15:33.877Z,0.00
2022-10-16T04:16:33.901Z,0.00
2022-10-16T04:17:33.876Z,0.00
2022-10-16T04:18:33.876Z,0.00
2022-10-16T04:19:33.883Z,0.00
2022-10-16T04:20:33.881Z,0.00
2022-10-16T04:21:33.877Z,0.00
2022-10-16T04:22:33.878Z,0.00
2022-10-16T04:23:33.882Z,0.00
2022-10-16T04:24:33.881Z,0.00
2022-10-16T04:25:33.881Z,0.00
2022-10-16T04:26:33.881Z,0.00
2022-10-16T04:27:33.881Z,0.00
2022-10-16T04:28:33.970Z,0.00
2022-10-16T04:29:33.879Z,0.00
2022-10-16T04:30:33.876Z,0.00
2022-10-16T04:31:33.885Z,0.00
2022-10-16T04:32:33.895Z,0.00
2022-10-16T04:33:33.880Z,0.00
2022-10-16T04:34:33.878Z,0.00
2022-10-16T04:35:33.882Z,0.00
2022-10-16T04:36:33.880Z,0.00
2022-10-16T04:37:33.877Z,0.00
2022-10-16T04:38:33.878Z,0.00
2022-10-16T04:39:33.885Z,0.00
2022-10-16T04:40:33.887Z,0.00
2022-10-16T04:41:33.878Z,0.00
2022-10-16T04:42:33.881Z,0.00
2022-10-16T04:43:33.884Z,0.00
2022-10-16T04:44:33.881Z,0.00
2022-10-16T04:45:33.895Z,0.00
2022-10-16T04:46:33.880Z,0.00
2022-10-16T04:47:33.881Z,0.00
2022-10-16T04:48:33.901Z,0.00
2022-10-16T04:49:33.884Z,0.00
2022-10-16T04:50:33.883Z,0.00
2022-10-16T04:51:33.883Z,0.00
2022-10-16T04:53:33.883Z,0.00
2022-10-16T04:54:33.883Z,0.00
2022-10-16T04:55:33.887Z,0.00
2022-10-16T04:56:33.880Z,0.00
2022-10-16T04:57:33.881Z,0.00
2022-10-16T04:58:33.879Z,0.00
2022-10-16T04:59:33.893Z,0.00
2022-10-16T05:00:33.883Z,0.00
2022-10-16T05:01:33.881Z,4.00
2022-10-16T05:02:33.927Z,4.00
2022-10-16T05:03:33.923Z,0.00
2022-10-16T05:04:33.901Z,0.00
2022-10-16T05:05:33.880Z,0.00
2022-10-16T05:06:33.880Z,4.00
2022-10-16T05:07:33.881Z,4.00
2022-10-16T05:08:33.880Z,0.00
2022-10-16T05:09:33.884Z,4.00
2022-10-16T05:10:33.881Z,8.00
2022-10-16T05:11:33.880Z,4.00
2022-10-16T05:12:33.879Z,8.00
2022-10-16T05:13:33.880Z,8.00
2022-10-16T05:14:33.895Z,12.00
2022-10-16T05:15:33.883Z,12.00
2022-10-16T05:16:33.883Z,16.00
2022-10-16T05:17:33.884Z,16.00
2022-10-16T05:18:33.878Z,20.00
2022-10-16T05:19:33.877Z,24.00
2022-10-16T05:20:33.904Z,28.00
2022-10-16T05:21:33.880Z,32.00
2022-10-16T05:22:33.880Z,36.00
2022-10-16T05:23:33.880Z,40.00
2022-10-16T05:24:33.877Z,44.00
2022-10-16T05:25:33.882Z,52.00
2022-10-16T05:26:33.883Z,60.00
2022-10-16T05:27:33.881Z,64.00
2022-10-16T05:28:33.952Z,72.00
2022-10-16T05:29:33.884Z,76.00
2022-10-16T05:30:33.880Z,84.00
2022-10-16T05:31:33.886Z,96.00
2022-10-16T05:32:33.885Z,100.00
2022-10-16T05:33:33.879Z,116.00
2022-10-16T05:34:33.894Z,128.00
2022-10-16T05:35:33.884Z,144.00
2022-10-16T05:36:33.902Z,168.00
2022-10-16T05:37:33.883Z,180.00
2022-10-16T05:38:33.878Z,200.00
2022-10-16T05:39:33.881Z,224.00
2022-10-16T05:40:33.882Z,248.00
2022-10-16T05:41:33.886Z,268.00
2022-10-16T05:42:33.881Z,284.00
2022-10-16T05:43:33.879Z,304.00
2022-10-16T05:45:33.882Z,352.00
2022-10-16T05:46:33.882Z,380.00
2022-10-16T05:47:33.882Z,412.00
2022-10-16T05:48:33.879Z,448.00
2022-10-16T05:49:37.771Z,480.00
2022-10-16T05:50:33.877Z,504.00
2022-10-16T05:51:33.882Z,528.00
2022-10-16T05:52:33.900Z,548.00
2022-10-16T05:53:34.031Z,568.00
2022-10-16T05:54:33.887Z,592.00
2022-10-16T05:55:33.880Z,612.00
2022-10-16T05:56:33.878Z,624.00
2022-10-16T05:57:33.878Z,648.00
2022-10-16T05:58:33.876Z,676.00
2022-10-16T05:59:33.882Z,664.00
2022-10-16T06:00:33.884Z,648.00
2022-10-16T06:01:33.939Z,640.00
2022-10-16T06:02:33.876Z,628.00
2022-10-16T06:03:33.881Z,624.00
2022-10-16T06:04:33.889Z,624.00
2022-10-16T06:05:33.885Z,612.00
2022-10-16T06:06:33.878Z,608.00
2022-10-16T06:07:33.880Z,620.00
2022-10-16T06:08:33.899Z,640.00
2022-10-16T06:09:33.883Z,668.00
2022-10-16T06:10:33.882Z,700.00
2022-10-16T06:11:33.881Z,732.00
2022-10-16T06:12:33.877Z,800.00
2022-10-16T06:13:33.879Z,888.00
2022-10-16T06:14:33.927Z,1016.00
2022-10-16T06:15:33.882Z,1088.00
2022-10-16T06:16:33.888Z,1084.00
2022-10-16T06:17:33.884Z,1148.00
2022-10-16T06:18:33.879Z,1388.00
2022-10-16T06:19:33.881Z,1484.00
2022-10-16T06:20:33.879Z,1268.00
2022-10-16T06:21:33.885Z,1088.00
2022-10-16T06:22:33.878Z,1008.00
2022-10-16T06:23:33.898Z,900.00
2022-10-16T06:24:33.901Z,908.00
2022-10-16T06:25:33.880Z,976.00
2022-10-16T06:26:33.878Z,1220.00
2022-10-16T06:27:33.878Z,1420.00
2022-10-16T06:28:34.000Z,1392.00
2022-10-16T06:29:33.881Z,1348.00
2022-10-16T06:30:33.889Z,1336.00
2022-10-16T06:31:33.881Z,1332.00
2022-10-16T06:32:33.880Z,1276.00
2022-10-16T06:33:33.886Z,1164.00
2022-10-16T06:34:35.187Z,1112.00
2022-10-16T06:35:33.881Z,1108.00
2022-10-16T06:36:33.882Z,1120.00
2022-10-16T06:37:33.876Z,1108.00
2022-10-16T06:38:33.885Z,1112.00
2022-10-16T06:39:33.883Z,1144.00
2022-10-16T06:40:33.908Z,1212.00
2022-10-16T06:41:33.879Z,1320.00
2022-10-16T06:42:33.878Z,1400.00
2022-10-16T06:43:33.889Z,1344.00
2022-10-16T06:44:33.878Z,1308.00
2022-10-16T06:45:33.878Z,1388.00
2022-10-16T06:46:33.879Z,1400.00
2022-10-16T06:47:33.879Z,1436.00
2022-10-16T06:48:33.881Z,1520.00
2022-10-16T06:49:33.887Z,1592.00
2022-10-16T06:50:33.882Z,1664.00
2022-10-16T06:51:35.097Z,1912.00
2022-10-16T06:52:33.879Z,2052.00
2022-10-16T06:53:40.002Z,2024.00
2022-10-16T06:54:41.882Z,1928.00
2022-10-16T06:55:33.882Z,1888.00
2022-10-16T06:56:33.961Z,1896.00
2022-10-16T06:57:33.878Z,2048.00
2022-10-16T06:58:33.885Z,1964.00
2022-10-16T06:59:33.891Z,1904.00
2022-10-16T07:00:33.886Z,1864.00
2022-10-16T07:01:33.886Z,1760.00
2022-10-16T07:02:33.884Z,1712.00
2022-10-16T07:03:33.882Z,1816.00
2022-10-16T07:04:33.883Z,1632.00
2022-10-16T07:05:33.888Z,1624.00
2022-10-16T07:06:33.893Z,1772.00
2022-10-16T07:07:33.879Z,1684.00
2022-10-16T07:08:33.885Z,1520.00
2022-10-16T07:09:33.885Z,1600.00
2022-10-16T07:10:33.882Z,2132.00
2022-10-16T07:11:33.882Z,2444.00
2022-10-16T07:12:33.903Z,2456.00
2022-10-16T07:13:33.886Z,2768.00
2022-10-16T07:14:33.889Z,2792.00
2022-10-16T07:15:33.888Z,2620.00
2022-10-16T07:16:33.888Z,2772.00
2022-10-16T07:17:33.896Z,3400.00
2022-10-16T07:18:33.891Z,4652.00
2022-10-16T07:19:34.575Z,6432.00
2022-10-16T07:20:33.890Z,7952.00
2022-10-16T07:21:33.885Z,6096.00
2022-10-16T07:22:33.889Z,5316.00
2022-10-16T07:23:33.886Z,5752.00
2022-10-16T07:24:33.887Z,6892.00
2022-10-16T07:25:33.884Z,8232.00
2022-10-16T07:26:33.887Z,8596.00
2022-10-16T07:27:33.906Z,8948.00
2022-10-16T07:28:33.967Z,9304.00
2022-10-16T07:29:33.887Z,9484.00
2022-10-16T07:30:33.932Z,10216.00
2022-10-16T07:31:33.895Z,10768.00
2022-10-16T07:32:33.887Z,10724.00
2022-10-16T07:33:33.884Z,11168.00
2022-10-16T07:34:33.884Z,11888.00
2022-10-16T07:35:33.888Z,12772.00
2022-10-16T07:36:33.915Z,12520.00
2022-10-16T07:37:33.890Z,12360.00
2022-10-16T07:38:33.888Z,9344.00
2022-10-16T07:39:33.887Z,6872.00
2022-10-16T07:40:33.899Z,6628.00
2022-10-16T07:41:33.891Z,6156.00
2022-10-16T07:42:33.897Z,5592.00
2022-10-16T07:43:33.891Z,6412.00
2022-10-16T07:44:33.914Z,7852.00
2022-10-16T07:45:33.894Z,8036.00
2022-10-16T07:46:33.892Z,6976.00
2022-10-16T07:47:33.893Z,5956.00
2022-10-16T07:48:33.902Z,5184.00
2022-10-16T07:49:33.896Z,4564.00
2022-10-16T07:50:33.897Z,4232.00
2022-10-16T07:51:33.898Z,4272.00
2022-10-16T07:52:33.897Z,4308.00
2022-10-16T07:53:33.895Z,4428.00
2022-10-16T07:54:33.899Z,4596.00
2022-10-16T07:55:33.899Z,4392.00
2022-10-16T07:56:33.900Z,3940.00
2022-10-16T07:57:33.898Z,3556.00
2022-10-16T07:58:33.909Z,3404.00
2022-10-16T07:59:33.902Z,3408.00
2022-10-16T08:00:33.926Z,3408.00
2022-10-16T08:01:33.973Z,3404.00
2022-10-16T08:02:33.904Z,3360.00
2022-10-16T08:03:33.902Z,3368.00
2022-10-16T08:04:33.909Z,3504.00
2022-10-16T08:05:33.902Z,3620.00
2022-10-16T08:06:33.908Z,3568.00
2022-10-16T08:07:33.907Z,3684.00
2022-10-16T08:08:33.908Z,3848.00
2022-10-16T08:09:33.909Z,3876.00
2022-10-16T08:10:33.914Z,3852.00
2022-10-16T08:11:33.909Z,3848.00
2022-10-16T08:12:33.916Z,4012.00
2022-10-16T08:13:33.913Z,4456.00
2022-10-16T08:14:33.917Z,4820.00
2022-10-16T08:15:33.912Z,4920.00
2022-10-16T08:16:33.937Z,4768.00
2022-10-16T08:17:33.912Z,4480.00
2022-10-16T08:18:33.918Z,4212.00
2022-10-16T08:19:33.923Z,4196.00
2022-10-16T08:20:33.916Z,4236.00
2022-10-16T08:21:33.916Z,4368.00
2022-10-16T08:22:33.926Z,4476.00
2022-10-16T08:23:33.925Z,4344.00
2022-10-16T08:24:33.921Z,4012.00
2022-10-16T08:25:33.917Z,3928.00
2022-10-16T08:26:33.921Z,4156.00
2022-10-16T08:27:33.921Z,4428.00
2022-10-16T08:28:34.031Z,5076.00
2022-10-16T08:29:33.926Z,6472.00
2022-10-16T08:30:33.927Z,6472.00
2022-10-16T08:31:33.927Z,6808.00
2022-10-16T08:32:34.229Z,7184.00
2022-10-16T08:33:33.932Z,7260.00
2022-10-16T08:34:33.932Z,7276.00
2022-10-16T08:35:33.934Z,7872.00
2022-10-16T08:36:33.927Z,10404.00
2022-10-16T08:37:33.932Z,10248.00
2022-10-16T08:38:33.933Z,10088.00
2022-10-16T08:39:33.934Z,9140.00
2022-10-16T08:40:33.938Z,12676.00
2022-10-16T08:41:33.931Z,12208.00
2022-10-16T08:42:33.933Z,13000.00
2022-10-16T08:43:33.939Z,12984.00
2022-10-16T08:44:33.938Z,10260.00
2022-10-16T08:45:33.932Z,17856.00
2022-10-16T08:46:33.941Z,11284.00
2022-10-16T08:47:33.939Z,7016.00
2022-10-16T08:48:33.957Z,6756.00
2022-10-16T08:49:33.965Z,6860.00
2022-10-16T08:50:34.134Z,6448.00
2022-10-16T08:51:33.940Z,6948.00
2022-10-16T08:52:33.941Z,7424.00
2022-10-16T08:53:33.938Z,7324.00
2022-10-16T08:54:33.945Z,7272.00
2022-10-16T08:55:33.945Z,6136.00
2022-10-16T08:56:33.950Z,5600.00
2022-10-16T08:57:33.951Z,5336.00
2022-10-16T08:58:33.979Z,4964.00
2022-10-16T08:59:33.952Z,4584.00
2022-10-16T09:00:34.067Z,4348.00
2022-10-16T09:01:33.954Z,4124.00
2022-10-16T09:02:33.955Z,3924.00
2022-10-16T09:03:33.957Z,3820.00
2022-10-16T09:04:33.977Z,3812.00
2022-10-16T09:05:33.952Z,3844.00
2022-10-16T09:06:33.967Z,3900.00
2022-10-16T09:07:33.959Z,4156.00
2022-10-16T09:08:33.960Z,4524.00
2022-10-16T09:09:33.962Z,4900.00
2022-10-16T09:10:33.968Z,5536.00
2022-10-16T09:11:33.963Z,6620.00
2022-10-16T09:12:33.967Z,8560.00
2022-10-16T09:13:33.972Z,12196.00
2022-10-16T09:14:33.974Z,14724.00
2022-10-16T09:15:33.969Z,16928.00
2022-10-16T09:16:33.973Z,34112.00
2022-10-16T09:17:33.969Z,48576.00
2022-10-16T09:18:33.970Z,20672.00
2022-10-16T09:19:33.975Z,17088.00
2022-10-16T09:20:33.992Z,18752.00
2022-10-16T09:21:33.978Z,17408.00
2022-10-16T09:22:33.979Z,18016.00
2022-10-16T09:23:33.973Z,20416.00
2022-10-16T09:24:33.981Z,17312.00
2022-10-16T09:25:33.982Z,15756.00
2022-10-16T09:26:33.997Z,19040.00
2022-10-16T09:27:33.992Z,29632.00
2022-10-16T09:28:34.124Z,45184.00
2022-10-16T09:29:33.991Z,45408.00
2022-10-16T09:30:33.992Z,13764.00
2022-10-16T09:31:33.996Z,13584.00
2022-10-16T09:32:34.001Z,10452.00
2022-10-16T09:33:33.996Z,11040.00
2022-10-16T09:34:34.001Z,12048.00
2022-10-16T09:35:34.033Z,11124.00
2022-10-16T09:36:34.028Z,9964.00
2022-10-16T09:37:34.009Z,9912.00
2022-10-16T09:38:34.019Z,11392.00
2022-10-16T09:39:34.018Z,16076.00
2022-10-16T09:40:34.022Z,19680.00
2022-10-16T09:41:34.027Z,22688.00
2022-10-16T09:42:34.025Z,25248.00
2022-10-16T09:43:34.027Z,17184.00
2022-10-16T09:44:34.103Z,24032.00
2022-10-16T09:45:34.037Z,44960.00
2022-10-16T09:46:34.039Z,44960.00
2022-10-16T09:47:34.046Z,58208.00
2022-10-16T09:48:34.046Z,61024.00
2022-10-16T09:49:34.047Z,60224.00
2022-10-16T09:50:34.051Z,60288.00
2022-10-16T09:51:34.055Z,60224.00
2022-10-16T09:52:34.077Z,61664.00
2022-10-16T09:53:34.067Z,62400.00
2022-10-16T09:54:34.071Z,63936.00
2022-10-16T09:55:34.075Z,59040.00
2022-10-16T09:56:34.084Z,42464.00
2022-10-16T09:57:34.083Z,31424.00
2022-10-16T09:58:34.093Z,28064.00
2022-10-16T09:59:34.092Z,45760.00
2022-10-16T10:00:34.108Z,24928.00
2022-10-16T10:01:34.118Z,21888.00
2022-10-16T10:02:34.121Z,16384.00
2022-10-16T10:03:34.131Z,18432.00
2022-10-16T10:04:34.137Z,17408.00
2022-10-16T10:05:34.141Z,25856.00
2022-10-16T10:06:34.158Z,62752.00
2022-10-16T10:07:34.175Z,16336.00
2022-10-16T10:08:34.193Z,23136.00
2022-10-16T10:09:34.175Z,31456.00
2022-10-16T10:10:34.186Z,31648.00
2022-10-16T10:11:34.191Z,35072.00
2022-10-16T10:12:34.606Z,18624.00
2022-10-16T10:13:34.205Z,11876.00
2022-10-16T10:14:34.218Z,13400.00
2022-10-16T10:15:34.219Z,14388.00
2022-10-16T10:16:34.242Z,16736.00
2022-10-16T10:17:34.240Z,17408.00
2022-10-16T10:18:34.250Z,17376.00
2022-10-16T10:19:34.254Z,16992.00
2022-10-16T10:20:34.263Z,17152.00
2022-10-16T10:21:34.276Z,17472.00
2022-10-16T10:22:34.277Z,19104.00
2022-10-16T10:23:34.285Z,18688.00
2022-10-16T10:24:34.317Z,16896.00
2022-10-16T10:25:34.304Z,16152.00
2022-10-16T10:26:37.783Z,19584.00
2022-10-16T10:27:34.318Z,17408.00
2022-10-16T10:28:34.364Z,17472.00
2022-10-16T10:29:34.327Z,16736.00
2022-10-16T10:30:34.337Z,15072.00
2022-10-16T10:31:34.341Z,15396.00
2022-10-16T10:32:34.349Z,15124.00
2022-10-16T10:33:34.353Z,14808.00
2022-10-16T10:34:34.366Z,15968.00
2022-10-16T10:35:34.369Z,14252.00
2022-10-16T10:36:34.383Z,15540.00
2022-10-16T10:37:34.382Z,16024.00
2022-10-16T10:38:34.395Z,16928.00
2022-10-16T10:39:34.401Z,18528.00
2022-10-16T10:40:34.430Z,19776.00
2022-10-16T10:41:34.407Z,32864.00
2022-10-16T10:42:34.421Z,25760.00
2022-10-16T10:43:34.421Z,23104.00
2022-10-16T10:44:34.428Z,24384.00
2022-10-16T10:45:34.437Z,18048.00
2022-10-16T10:46:34.439Z,17280.00
2022-10-16T10:47:34.448Z,15484.00
2022-10-16T10:48:34.459Z,15540.00
2022-10-16T10:49:34.466Z,15792.00
2022-10-16T10:50:34.470Z,24960.00
2022-10-16T10:51:34.473Z,21440.00
2022-10-16T10:52:34.481Z,17952.00
2022-10-16T10:53:34.488Z,49472.00
2022-10-16T10:54:34.490Z,42624.00
2022-10-16T10:55:34.508Z,16100.00
2022-10-16T10:56:34.535Z,19584.00
2022-10-16T10:57:34.559Z,19168.00
2022-10-16T10:58:36.039Z,24608.00
2022-10-16T10:59:34.520Z,15200.00
2022-10-16T11:00:34.531Z,36672.00
2022-10-16T11:01:34.578Z,44864.00
2022-10-16T11:02:34.539Z,53760.00
2022-10-16T11:03:34.549Z,21920.00
2022-10-16T11:04:34.561Z,17536.00
2022-10-16T11:05:34.567Z,18848.00
2022-10-16T11:06:34.633Z,24640.00
2022-10-16T11:07:34.578Z,49440.00
2022-10-16T11:08:34.608Z,73664.00
2022-10-16T11:09:34.593Z,19264.00
2022-10-16T11:10:34.603Z,26080.00
2022-10-16T11:11:34.618Z,16408.00
2022-10-16T11:12:34.643Z,13252.00
2022-10-16T11:13:34.628Z,13044.00
2022-10-16T11:14:34.629Z,13012.00
2022-10-16T11:15:34.647Z,23936.00
2022-10-16T11:16:34.646Z,62464.00
2022-10-16T11:17:34.657Z,61728.00
2022-10-16T11:18:34.666Z,37376.00
2022-10-16T11:19:34.672Z,60832.00
2022-10-16T11:20:34.679Z,32096.00
2022-10-16T11:21:34.690Z,17024.00
2022-10-16T11:22:34.699Z,17056.00
2022-10-16T11:23:34.707Z,23040.00
2022-10-16T11:24:34.714Z,43136.00
2022-10-16T11:25:34.721Z,50304.00
2022-10-16T11:26:34.738Z,25408.00
2022-10-16T11:27:34.742Z,53856.00
2022-10-16T11:28:34.913Z,35232.00
2022-10-16T11:29:34.758Z,16388.00
2022-10-16T11:30:34.771Z,15880.00
2022-10-16T11:31:34.790Z,13624.00
2022-10-16T11:32:34.797Z,22944.00
2022-10-16T11:33:34.809Z,16864.00
2022-10-16T11:34:37.694Z,14184.00
2022-10-16T11:35:34.826Z,14384.00
2022-10-16T11:36:34.833Z,13540.00
2022-10-16T11:37:34.844Z,13652.00
2022-10-16T11:38:34.851Z,13432.00
2022-10-16T11:39:34.861Z,13064.00
2022-10-16T11:40:34.870Z,12768.00
2022-10-16T11:41:34.878Z,13292.00
2022-10-16T11:42:34.892Z,13832.00
2022-10-16T11:43:34.896Z,14736.00
2022-10-16T11:44:34.927Z,17280.00
2022-10-16T11:45:34.920Z,17344.00
2022-10-16T11:46:47.789Z,17120.00
2022-10-16T11:48:34.945Z,17920.00
2022-10-16T11:49:34.953Z,17664.00
2022-10-16T11:50:34.962Z,16188.00
2022-10-16T11:51:34.973Z,22432.00
2022-10-16T11:52:34.975Z,27104.00
2022-10-16T11:53:34.986Z,24896.00
2022-10-16T11:54:34.986Z,20800.00
2022-10-16T11:55:35.008Z,21440.00
2022-10-16T11:56:35.018Z,18304.00
2022-10-16T11:57:35.023Z,16256.00
2022-10-16T11:58:35.028Z,18688.00
2022-10-16T11:59:35.036Z,14968.00
2022-10-16T12:00:35.074Z,13776.00
2022-10-16T12:01:35.060Z,12988.00
2022-10-16T12:02:35.063Z,11492.00
2022-10-16T12:03:35.100Z,8540.00
2022-10-16T12:04:35.083Z,9840.00
2022-10-16T12:05:35.086Z,10008.00
2022-10-16T12:06:35.095Z,9860.00
2022-10-16T12:07:35.105Z,9912.00
2022-10-16T12:08:35.121Z,11188.00
2022-10-16T12:09:35.119Z,11420.00
2022-10-16T12:10:35.161Z,12224.00
2022-10-16T12:11:35.137Z,13080.00
2022-10-16T12:12:36.868Z,12560.00
2022-10-16T12:13:35.159Z,12676.00
2022-10-16T12:14:42.851Z,11924.00
2022-10-16T12:15:57.688Z,11788.00
2022-10-16T12:16:35.195Z,11372.00
2022-10-16T12:17:35.177Z,11224.00
2022-10-16T12:18:35.180Z,10352.00
2022-10-16T12:19:35.196Z,9924.00
2022-10-16T12:20:35.200Z,8580.00
2022-10-16T12:21:35.214Z,7896.00
2022-10-16T12:22:39.297Z,7232.00
2022-10-16T12:23:35.221Z,6844.00
2022-10-16T12:24:35.230Z,6636.00
2022-10-16T12:25:35.233Z,5788.00
2022-10-16T12:26:35.239Z,5024.00
2022-10-16T12:27:35.249Z,4492.00
2022-10-16T12:28:35.383Z,4336.00
2022-10-16T12:29:35.264Z,4468.00
2022-10-16T12:30:36.038Z,4812.00
2022-10-16T12:31:35.275Z,4936.00
2022-10-16T12:32:46.089Z,5820.00
2022-10-16T12:33:35.283Z,5900.00
2022-10-16T12:34:35.299Z,5592.00